createdAt,value
2022-12-20T00:01:30.679Z,1.60
2022-12-20T00:04:02.282Z,1.70
2022-12-20T00:06:29.956Z,1.70
2022-12-20T00:09:02.220Z,1.60
2022-12-20T00:11:30.287Z,1.50
2022-12-20T00:13:58.901Z,1.50
2022-12-20T00:16:28.283Z,1.60
2022-12-20T00:19:01.226Z,1.60
2022-12-20T00:21:29.812Z,1.60
2022-12-20T00:23:58.666Z,1.60
2022-12-20T00:26:29.166Z,1.70
2022-12-20T00:28:57.025Z,1.90
2022-12-20T00:31:25.862Z,1.70
2022-12-20T00:33:54.987Z,1.70
2022-12-20T00:36:24.537Z,1.80
2022-12-20T00:38:54.997Z,1.80
2022-12-20T00:41:24.785Z,1.80
2022-12-20T00:43:52.823Z,1.90
2022-12-20T00:46:21.312Z,1.90
2022-12-20T00:48:48.964Z,1.90
2022-12-20T00:51:20.252Z,2.00
2022-12-20T00:53:47.702Z,2.00
2022-12-20T00:56:15.253Z,2.00
2022-12-20T00:58:43.761Z,2.10
2022-12-20T01:01:17.976Z,2.10
2022-12-20T01:03:45.685Z,2.20
2022-12-20T01:06:14.032Z,2.10
2022-12-20T01:08:41.855Z,2.10
2022-12-20T01:11:13.375Z,2.20
2022-12-20T01:13:46.921Z,2.20
2022-12-20T01:16:18.686Z,2.20
2022-12-20T01:18:46.751Z,2.30
2022-12-20T01:21:16.770Z,2.20
2022-12-20T01:23:44.425Z,2.20
2022-12-20T01:26:14.087Z,2.20
2022-12-20T01:28:43.669Z,2.20
2022-12-20T01:31:13.693Z,2.20
2022-12-20T01:33:40.911Z,2.20
2022-12-20T01:36:12.389Z,2.20
2022-12-20T01:38:40.911Z,2.20
2022-12-20T01:41:08.511Z,2.30
2022-12-20T01:43:50.867Z,2.30
2022-12-20T01:46:20.071Z,2.30
2022-12-20T01:49:11.521Z,2.30
2022-12-20T01:52:02.223Z,2.30
2022-12-20T01:54:36.260Z,2.30
2022-12-20T01:57:08.938Z,2.30
2022-12-20T01:59:39.097Z,2.40
2022-12-20T02:02:09.815Z,2.40
2022-12-20T02:04:37.203Z,2.40
2022-12-20T02:07:05.667Z,2.40
2022-12-20T02:09:35.132Z,2.40
2022-12-20T02:12:20.919Z,2.40
2022-12-20T02:15:02.089Z,2.30
2022-12-20T02:17:44.302Z,2.40
2022-12-20T02:20:43.743Z,2.30
2022-12-20T02:23:29.739Z,2.30
2022-12-20T02:26:30.930Z,2.30
2022-12-20T02:29:24.173Z,2.30
2022-12-20T02:32:22.152Z,2.40
2022-12-20T02:34:50.961Z,2.40
2022-12-20T02:37:18.183Z,2.40
2022-12-20T02:39:46.865Z,2.40
2022-12-20T02:42:21.157Z,2.40
2022-12-20T02:45:17.950Z,2.40
2022-12-20T02:47:58.294Z,2.40
2022-12-20T02:50:40.282Z,2.40
2022-12-20T02:53:09.290Z,2.40
2022-12-20T02:55:49.656Z,2.40
2022-12-20T02:58:29.485Z,2.40
2022-12-20T03:01:04.296Z,2.40
2022-12-20T03:03:34.489Z,2.50
2022-12-20T03:06:02.018Z,2.50
2022-12-20T03:08:30.311Z,2.60
2022-12-20T03:10:58.284Z,2.60
2022-12-20T03:13:26.429Z,2.60
2022-12-20T03:16:03.484Z,2.60
2022-12-20T03:18:30.692Z,2.60
2022-12-20T03:20:57.870Z,2.70
2022-12-20T03:23:25.636Z,2.80
2022-12-20T03:25:53.417Z,2.70
2022-12-20T03:28:46.885Z,2.60
2022-12-20T03:31:19.181Z,2.60
2022-12-20T03:33:51.317Z,2.60
2022-12-20T03:36:23.301Z,2.60
2022-12-20T03:38:54.840Z,2.60
2022-12-20T03:41:24.454Z,2.60
2022-12-20T03:43:53.445Z,2.70
2022-12-20T03:46:21.979Z,2.60
2022-12-20T03:48:49.414Z,2.70
2022-12-20T03:51:16.630Z,2.70
2022-12-20T03:53:43.813Z,2.80
2022-12-20T03:56:11.884Z,2.80
2022-12-20T03:58:40.583Z,2.80
2022-12-20T04:01:24.222Z,2.80
2022-12-20T04:03:52.252Z,2.80
2022-12-20T04:06:20.509Z,2.80
2022-12-20T04:08:47.717Z,2.80
2022-12-20T04:11:22.217Z,2.80
2022-12-20T04:14:21.810Z,2.80
2022-12-20T04:16:49.752Z,2.90
2022-12-20T04:19:18.984Z,2.90
2022-12-20T04:21:47.785Z,2.90
2022-12-20T04:24:16.649Z,2.90
2022-12-20T04:26:55.938Z,2.90
2022-12-20T04:29:24.006Z,2.90
2022-12-20T04:31:51.429Z,2.90
2022-12-20T04:34:19.481Z,2.80
2022-12-20T04:36:46.782Z,2.80
2022-12-20T04:39:20.549Z,2.80
2022-12-20T04:42:14.173Z,2.80
2022-12-20T04:44:41.390Z,2.80
2022-12-20T04:47:10.763Z,3.30
2022-12-20T04:49:38.047Z,2.70
2022-12-20T04:52:24.517Z,2.70
2022-12-20T04:54:51.826Z,2.60
2022-12-20T04:57:24.926Z,2.60
2022-12-20T04:59:52.872Z,2.60
2022-12-20T05:02:20.187Z,2.60
2022-12-20T05:04:51.871Z,2.60
2022-12-20T05:07:19.329Z,2.60
2022-12-20T05:09:51.803Z,2.70
2022-12-20T05:12:19.396Z,2.70
2022-12-20T05:14:46.605Z,2.70
2022-12-20T05:17:17.815Z,2.70
2022-12-20T05:19:45.289Z,2.70
2022-12-20T05:22:33.368Z,2.70
2022-12-20T05:25:29.309Z,2.70
2022-12-20T05:27:59.556Z,2.70
2022-12-20T05:30:29.747Z,2.70
2022-12-20T05:32:56.980Z,2.70
2022-12-20T05:35:24.653Z,2.70
2022-12-20T05:37:58.338Z,2.70
2022-12-20T05:40:25.528Z,2.80
2022-12-20T05:42:52.724Z,2.80
2022-12-20T05:45:21.738Z,2.90
2022-12-20T05:47:54.490Z,2.90
2022-12-20T05:50:22.365Z,2.90
2022-12-20T05:53:16.904Z,2.90
2022-12-20T05:55:51.109Z,2.80
2022-12-20T05:58:19.635Z,2.80
2022-12-20T06:00:53.803Z,2.80
2022-12-20T06:03:22.447Z,2.90
2022-12-20T06:05:50.885Z,2.80
2022-12-20T06:08:25.193Z,2.80
2022-12-20T06:10:53.617Z,2.70
2022-12-20T06:13:22.128Z,2.70
2022-12-20T06:15:51.822Z,2.70
2022-12-20T06:18:20.655Z,3.20
2022-12-20T06:20:52.938Z,2.70
2022-12-20T06:23:23.355Z,2.80
2022-12-20T06:26:04.290Z,2.70
2022-12-20T06:28:35.093Z,2.70
2022-12-20T06:31:03.097Z,2.70
2022-12-20T06:33:42.850Z,2.80
2022-12-20T06:36:11.634Z,2.90
2022-12-20T06:38:38.830Z,2.90
2022-12-20T06:41:06.519Z,3.00
2022-12-20T06:43:34.053Z,3.00
2022-12-20T06:46:01.328Z,3.10
2022-12-20T06:48:29.165Z,3.10
2022-12-20T06:50:56.696Z,3.10
2022-12-20T06:53:25.985Z,3.00
2022-12-20T06:55:53.466Z,3.10
2022-12-20T06:58:21.825Z,3.10
2022-12-20T07:00:49.734Z,3.00
2022-12-20T07:03:17.147Z,3.10
2022-12-20T07:05:44.425Z,3.10
2022-12-20T07:08:11.583Z,3.00
2022-12-20T07:10:38.764Z,3.10
2022-12-20T07:13:05.949Z,3.20
2022-12-20T07:15:33.109Z,3.20
2022-12-20T07:18:00.353Z,3.20
2022-12-20T07:20:27.673Z,3.30
2022-12-20T07:22:54.963Z,3.30
2022-12-20T07:25:22.220Z,3.30
2022-12-20T07:27:52.276Z,3.30
2022-12-20T07:30:20.284Z,3.40
2022-12-20T07:32:48.152Z,3.30
2022-12-20T07:35:15.693Z,3.30
2022-12-20T07:37:42.883Z,3.30
2022-12-20T07:40:11.653Z,3.30
2022-12-20T07:42:46.184Z,3.40
2022-12-20T07:45:15.734Z,3.50
2022-12-20T07:47:43.778Z,3.50
2022-12-20T07:50:11.788Z,3.50
2022-12-20T07:52:42.243Z,3.60
2022-12-20T07:55:10.289Z,3.60
2022-12-20T07:57:48.712Z,3.60
2022-12-20T08:00:18.605Z,3.60
2022-12-20T08:02:55.609Z,3.70
2022-12-20T08:05:24.276Z,3.70
2022-12-20T08:07:58.725Z,3.70
2022-12-20T08:10:28.253Z,3.60
2022-12-20T08:12:55.907Z,3.70
2022-12-20T08:15:23.853Z,3.80
2022-12-20T08:17:51.066Z,3.90
2022-12-20T08:20:18.301Z,3.90
2022-12-20T08:22:45.542Z,4.00
2022-12-20T08:25:13.115Z,4.10
2022-12-20T08:27:40.336Z,4.20
2022-12-20T08:30:10.300Z,4.20
2022-12-20T08:32:38.104Z,4.30
2022-12-20T08:35:06.093Z,4.40
2022-12-20T08:37:33.305Z,4.50
2022-12-20T08:40:00.873Z,4.60
2022-12-20T08:42:28.382Z,4.60
2022-12-20T08:44:56.399Z,4.60
2022-12-20T08:47:23.634Z,4.70
2022-12-20T08:49:51.008Z,4.80
2022-12-20T08:52:18.144Z,4.80
2022-12-20T08:54:45.573Z,4.90
2022-12-20T08:57:12.930Z,4.90
2022-12-20T08:59:40.061Z,5.00
2022-12-20T09:02:07.233Z,5.00
2022-12-20T09:04:34.595Z,5.10
2022-12-20T09:07:01.924Z,5.10
2022-12-20T09:09:29.225Z,5.20
2022-12-20T09:11:57.273Z,5.20
2022-12-20T09:14:24.574Z,5.20
2022-12-20T09:16:51.819Z,5.20
2022-12-20T09:19:18.978Z,5.30
2022-12-20T09:21:46.146Z,5.40
2022-12-20T09:24:13.318Z,5.50
2022-12-20T09:26:40.945Z,5.60
2022-12-20T09:29:08.203Z,5.60
2022-12-20T09:31:36.869Z,5.60
2022-12-20T09:34:04.155Z,5.60
2022-12-20T09:36:31.466Z,5.70
2022-12-20T09:38:58.954Z,5.80
2022-12-20T09:41:40.213Z,5.90
2022-12-20T09:44:31.131Z,6.00
2022-12-20T09:47:10.580Z,6.10
2022-12-20T09:49:42.563Z,6.20
2022-12-20T09:52:21.737Z,6.20
2022-12-20T09:55:17.876Z,6.30
2022-12-20T09:58:18.947Z,6.40
2022-12-20T10:00:53.893Z,6.50
2022-12-20T10:03:32.589Z,6.50
2022-12-20T10:06:21.145Z,6.70
2022-12-20T10:08:59.241Z,6.70
2022-12-20T10:11:51.157Z,6.90
2022-12-20T10:14:26.936Z,7.00
2022-12-20T10:17:17.717Z,7.10
2022-12-20T10:20:00.638Z,7.20
2022-12-20T10:23:13.415Z,7.30
2022-12-20T10:25:41.958Z,7.40
2022-12-20T10:28:15.604Z,7.50
2022-12-20T10:30:43.661Z,7.60
2022-12-20T10:33:21.597Z,7.60
2022-12-20T10:35:50.655Z,7.80
2022-12-20T10:38:18.328Z,7.80
2022-12-20T10:41:20.748Z,7.80
2022-12-20T10:43:50.932Z,7.70
2022-12-20T10:46:19.167Z,7.80
2022-12-20T10:48:48.355Z,7.80
2022-12-20T10:51:18.490Z,8.00
2022-12-20T10:54:01.382Z,8.00
2022-12-20T10:56:34.097Z,8.00
2022-12-20T10:59:22.649Z,8.00
2022-12-20T11:01:50.908Z,8.10
2022-12-20T11:04:33.748Z,8.10
2022-12-20T11:07:03.729Z,8.20
2022-12-20T11:09:38.663Z,8.20
2022-12-20T11:12:16.858Z,8.10
2022-12-20T11:14:46.452Z,8.20
2022-12-20T11:17:24.856Z,8.30
2022-12-20T11:20:10.572Z,8.30
2022-12-20T11:22:56.262Z,8.40
2022-12-20T11:25:51.363Z,8.50
2022-12-20T11:28:27.492Z,8.40
2022-12-20T11:31:15.790Z,8.50
2022-12-20T11:34:14.466Z,8.60
2022-12-20T11:37:29.224Z,8.70
2022-12-20T11:40:24.186Z,8.70
2022-12-20T11:44:08.004Z,8.70
2022-12-20T11:46:44.518Z,8.80
2022-12-20T11:49:29.898Z,8.80
2022-12-20T11:52:36.026Z,8.80
2022-12-20T11:55:25.107Z,8.80
2022-12-20T11:58:16.843Z,8.90
2022-12-20T12:00:41.634Z,8.90
2022-12-20T12:03:12.929Z,8.90
2022-12-20T12:05:53.748Z,8.90
2022-12-20T12:08:39.901Z,8.90
2022-12-20T12:12:04.553Z,8.90
2022-12-20T12:14:06.409Z,8.90
2022-12-20T12:16:44.637Z,8.80
2022-12-20T12:19:13.207Z,8.80
2022-12-20T12:21:47.467Z,8.80
2022-12-20T12:24:26.660Z,8.80
2022-12-20T12:26:54.103Z,8.80
2022-12-20T12:29:22.239Z,8.70
2022-12-20T12:32:07.616Z,8.80
2022-12-20T12:34:43.706Z,8.80
2022-12-20T12:37:38.771Z,8.90
2022-12-20T12:40:17.954Z,8.90
2022-12-20T12:43:12.725Z,8.90
2022-12-20T12:45:47.977Z,8.80
2022-12-20T12:48:24.750Z,8.90
2022-12-20T12:50:55.853Z,8.80
2022-12-20T12:53:29.735Z,8.80
2022-12-20T12:56:12.699Z,8.80
2022-12-20T12:58:46.546Z,8.80
2022-12-20T13:01:47.572Z,8.80
2022-12-20T13:04:20.980Z,8.80
2022-12-20T13:06:48.071Z,8.70
2022-12-20T13:09:25.839Z,8.70
2022-12-20T13:12:00.330Z,8.60
2022-12-20T13:14:29.436Z,8.60
2022-12-20T13:17:12.366Z,8.60
2022-12-20T13:19:51.301Z,8.60
2022-12-20T13:22:25.740Z,8.50
2022-12-20T13:24:56.173Z,8.40
2022-12-20T13:27:33.780Z,8.40
2022-12-20T13:30:10.399Z,8.30
2022-12-20T13:32:59.054Z,8.30
2022-12-20T13:35:26.618Z,8.20
2022-12-20T13:38:25.649Z,8.20
2022-12-20T13:40:58.234Z,8.20
2022-12-20T13:43:35.813Z,8.20
2022-12-20T13:46:11.728Z,8.30
2022-12-20T13:48:47.935Z,8.10
2022-12-20T13:51:20.428Z,8.00
2022-12-20T13:54:01.812Z,8.00
2022-12-20T13:56:39.475Z,8.00
2022-12-20T13:59:18.121Z,8.00
2022-12-20T14:01:54.196Z,7.90
2022-12-20T14:04:21.780Z,7.90
2022-12-20T14:07:00.212Z,7.90
2022-12-20T14:09:36.072Z,7.90
2022-12-20T14:12:17.880Z,7.80
2022-12-20T14:14:50.493Z,7.80
2022-12-20T14:17:25.754Z,7.90
2022-12-20T14:20:04.206Z,8.00
2022-12-20T14:22:32.622Z,8.10
2022-12-20T14:25:00.409Z,8.20
2022-12-20T14:27:33.185Z,8.20
2022-12-20T14:30:00.431Z,8.30
2022-12-20T14:32:28.080Z,8.20
2022-12-20T14:34:55.366Z,8.20
2022-12-20T14:37:28.422Z,7.90
2022-12-20T14:40:22.138Z,7.90
2022-12-20T14:42:49.466Z,7.70
2022-12-20T14:45:18.845Z,7.50
2022-12-20T14:47:51.581Z,7.40
2022-12-20T14:50:24.347Z,7.20
2022-12-20T14:52:51.770Z,7.20
2022-12-20T14:55:33.626Z,7.10
2022-12-20T14:58:01.321Z,7.00
2022-12-20T15:00:31.446Z,6.90
2022-12-20T15:03:02.722Z,6.90
2022-12-20T15:05:36.690Z,6.90
2022-12-20T15:08:30.724Z,6.80
2022-12-20T15:11:17.357Z,6.70
2022-12-20T15:13:53.335Z,6.60
2022-12-20T15:16:23.476Z,6.50
2022-12-20T15:18:58.416Z,6.40
2022-12-20T15:21:42.638Z,6.40
2022-12-20T15:24:19.641Z,6.30
2022-12-20T15:26:47.387Z,6.20
2022-12-20T15:29:25.639Z,6.30
2022-12-20T15:32:20.416Z,6.10
2022-12-20T15:34:47.598Z,6.10
2022-12-20T15:37:18.622Z,6.00
2022-12-20T15:39:46.392Z,6.00
2022-12-20T15:42:17.255Z,5.90
2022-12-20T15:44:44.965Z,5.90
2022-12-20T15:47:16.213Z,5.80
2022-12-20T15:49:49.759Z,5.80
2022-12-20T15:52:23.168Z,5.70
2022-12-20T15:54:50.520Z,5.70
2022-12-20T15:57:17.777Z,5.70
2022-12-20T16:00:02.062Z,5.70
2022-12-20T16:02:41.198Z,5.60
2022-12-20T16:05:11.880Z,5.60
2022-12-20T16:07:39.080Z,5.60
2022-12-20T16:10:09.914Z,5.50
2022-12-20T16:12:37.133Z,5.50
2022-12-20T16:15:05.233Z,5.50
2022-12-20T16:17:32.428Z,5.50
2022-12-20T16:19:59.644Z,5.40
2022-12-20T16:22:26.950Z,5.40
2022-12-20T16:24:54.503Z,5.40
2022-12-20T16:27:21.906Z,5.30
2022-12-20T16:29:49.142Z,5.30
2022-12-20T16:32:18.489Z,5.30
2022-12-20T16:34:46.149Z,5.30
2022-12-20T16:37:13.742Z,5.30
2022-12-20T16:39:41.905Z,5.30
2022-12-20T16:42:17.648Z,5.20
2022-12-20T16:44:45.747Z,5.20
2022-12-20T16:47:14.547Z,5.20
2022-12-20T16:49:49.699Z,5.20
2022-12-20T16:52:21.653Z,5.20
2022-12-20T16:54:48.931Z,5.20
2022-12-20T16:57:16.106Z,5.00
2022-12-20T16:59:43.426Z,4.90
2022-12-20T17:02:27.749Z,4.90
2022-12-20T17:04:55.996Z,5.00
2022-12-20T17:07:23.429Z,5.00
2022-12-20T17:09:51.093Z,5.00
2022-12-20T17:12:20.572Z,5.00
2022-12-20T17:14:48.846Z,5.00
2022-12-20T17:17:17.340Z,5.00
2022-12-20T17:19:44.680Z,5.00
2022-12-20T17:24:58.097Z,5.00
2022-12-20T17:27:25.311Z,4.80
2022-12-20T17:29:52.567Z,4.90
2022-12-20T17:32:22.375Z,4.80
2022-12-20T17:34:50.017Z,4.80
2022-12-20T17:37:17.841Z,4.80
2022-12-20T17:39:45.053Z,4.80
2022-12-20T17:42:15.969Z,4.80
2022-12-20T17:44:43.325Z,4.80
2022-12-20T17:47:11.477Z,4.80
2022-12-20T17:49:38.893Z,4.80
2022-12-20T17:52:06.106Z,4.80
2022-12-20T17:54:39.771Z,4.80
2022-12-20T17:57:14.166Z,4.70
2022-12-20T17:59:42.348Z,4.70
2022-12-20T18:02:24.965Z,4.80
2022-12-20T18:04:52.799Z,4.70
2022-12-20T18:07:20.386Z,4.70
2022-12-20T18:09:48.310Z,4.70
2022-12-20T18:12:16.350Z,4.70
2022-12-20T18:14:43.594Z,4.70
2022-12-20T18:17:10.936Z,4.70
2022-12-20T18:19:38.475Z,4.80
2022-12-20T18:22:06.592Z,4.80
2022-12-20T18:24:33.771Z,4.70
2022-12-20T18:27:00.939Z,4.70
2022-12-20T18:29:28.521Z,4.60
2022-12-20T18:31:55.718Z,4.50
2022-12-20T18:34:23.211Z,4.50
2022-12-20T18:36:50.385Z,4.40
2022-12-20T18:39:17.722Z,4.40
2022-12-20T18:41:44.872Z,4.50
2022-12-20T18:44:12.288Z,4.50
2022-12-20T18:46:40.645Z,4.50
2022-12-20T18:49:08.875Z,4.50
2022-12-20T18:51:36.969Z,4.50
2022-12-20T18:54:06.420Z,4.50
2022-12-20T18:56:36.552Z,4.40
2022-12-20T18:59:11.511Z,4.30
2022-12-20T19:01:42.015Z,4.20
2022-12-20T19:04:09.862Z,4.20
2022-12-20T19:06:37.665Z,4.20
2022-12-20T19:09:11.154Z,4.20
2022-12-20T19:11:38.701Z,4.10
2022-12-20T19:14:06.090Z,4.10
2022-12-20T19:16:35.328Z,4.10
2022-12-20T19:19:03.452Z,4.10
2022-12-20T19:21:32.930Z,4.10
2022-12-20T19:24:03.824Z,4.20
2022-12-20T19:26:31.487Z,4.20
2022-12-20T19:28:58.871Z,4.20
2022-12-20T19:31:32.353Z,4.20
2022-12-20T19:34:02.242Z,4.20
2022-12-20T19:36:32.258Z,4.20
2022-12-20T19:39:01.363Z,4.10
2022-12-20T19:41:31.161Z,4.10
2022-12-20T19:43:58.512Z,4.00
2022-12-20T19:46:29.244Z,4.00
2022-12-20T19:48:58.950Z,4.00
2022-12-20T19:51:27.732Z,4.00
2022-12-20T19:53:56.652Z,4.10
2022-12-20T19:56:26.708Z,4.10
2022-12-20T19:58:55.131Z,4.10
2022-12-20T20:01:25.551Z,4.10
2022-12-20T20:03:58.418Z,4.10
2022-12-20T20:06:27.434Z,4.10
2022-12-20T20:08:57.588Z,4.20
2022-12-20T20:11:25.428Z,4.10
2022-12-20T20:13:52.766Z,4.20
2022-12-20T20:16:22.727Z,4.20
2022-12-20T20:18:50.670Z,4.20
2022-12-20T20:21:22.300Z,4.20
2022-12-20T20:23:50.975Z,4.30
2022-12-20T20:26:22.132Z,4.20
2022-12-20T20:28:49.945Z,4.30
2022-12-20T20:31:18.443Z,4.30
2022-12-20T20:33:46.334Z,4.30
2022-12-20T20:36:17.180Z,4.20
2022-12-20T20:38:44.533Z,4.20
2022-12-20T20:41:11.988Z,4.10
2022-12-20T20:43:40.951Z,4.10
2022-12-20T20:46:11.345Z,4.10
2022-12-20T20:48:39.138Z,4.20
2022-12-20T20:51:06.536Z,4.30
2022-12-20T20:53:34.664Z,4.20
2022-12-20T20:56:03.928Z,4.20
2022-12-20T20:58:31.193Z,4.20
2022-12-20T21:01:01.044Z,4.20
2022-12-20T21:03:29.817Z,4.30
2022-12-20T21:06:35.071Z,4.30
2022-12-20T21:08:44.630Z,4.40
2022-12-20T21:11:12.161Z,4.40
2022-12-20T21:13:39.589Z,4.50
2022-12-20T21:16:13.197Z,4.50
2022-12-20T21:18:40.572Z,4.50
2022-12-20T21:21:12.322Z,4.50
2022-12-20T21:23:43.175Z,4.60
2022-12-20T21:26:10.433Z,4.50
2022-12-20T21:28:37.675Z,4.50
2022-12-20T21:31:06.663Z,4.60
2022-12-20T21:33:33.872Z,4.60
2022-12-20T21:36:01.560Z,4.60
2022-12-20T21:38:29.378Z,4.60
2022-12-20T21:41:05.437Z,4.60
2022-12-20T21:43:32.736Z,4.60
2022-12-20T21:46:00.340Z,4.60
2022-12-20T21:48:27.589Z,4.60
2022-12-20T21:51:06.551Z,4.60
2022-12-20T21:53:33.710Z,4.60
2022-12-20T21:56:01.116Z,4.50
2022-12-20T21:58:29.994Z,4.50
2022-12-20T22:00:57.752Z,4.50
2022-12-20T22:03:26.300Z,4.50
2022-12-20T22:05:55.554Z,4.50
2022-12-20T22:08:24.578Z,4.50
2022-12-20T22:11:06.297Z,4.30
2022-12-20T22:13:40.677Z,4.20
2022-12-20T22:16:11.064Z,4.20
2022-12-20T22:18:39.232Z,4.30
2022-12-20T22:21:09.479Z,4.30
2022-12-20T22:23:37.393Z,4.30
2022-12-20T22:26:09.490Z,4.30
2022-12-20T22:28:37.965Z,4.30
2022-12-20T22:31:09.408Z,4.40
2022-12-20T22:33:38.173Z,4.50
2022-12-20T22:36:06.522Z,4.50
2022-12-20T22:38:34.574Z,4.60
2022-12-20T22:41:13.510Z,4.60
2022-12-20T22:43:42.603Z,4.60
2022-12-20T22:46:10.529Z,4.60
2022-12-20T22:48:38.790Z,4.60
2022-12-20T22:51:11.439Z,4.60
2022-12-20T22:53:39.382Z,4.60
2022-12-20T22:56:07.240Z,4.50
2022-12-20T22:58:35.296Z,4.60
2022-12-20T23:01:05.384Z,4.60
2022-12-20T23:03:32.753Z,4.60
2022-12-20T23:06:03.730Z,4.60
2022-12-20T23:08:33.945Z,4.60
2022-12-20T23:11:20.205Z,4.60
2022-12-20T23:14:06.302Z,4.50
2022-12-20T23:16:33.598Z,4.50
2022-12-20T23:19:01.973Z,4.50
2022-12-20T23:21:48.511Z,4.50
2022-12-20T23:24:16.108Z,4.40
2022-12-20T23:26:43.856Z,4.40
2022-12-20T23:29:11.669Z,4.40
2022-12-20T23:31:38.963Z,4.40
2022-12-20T23:34:07.241Z,4.50
2022-12-20T23:36:34.636Z,4.50
2022-12-20T23:39:02.157Z,4.50
2022-12-20T23:41:29.443Z,4.50
2022-12-20T23:43:57.000Z,4.50
2022-12-20T23:46:24.689Z,4.50
2022-12-20T23:48:52.936Z,4.50
2022-12-20T23:51:21.215Z,4.50
2022-12-20T23:53:52.973Z,4.40
2022-12-20T23:56:21.908Z,4.50
2022-12-20T23:58:54.247Z,4.50
